EDT,Max TemperatureF,Mean TemperatureF,Min TemperatureF,Max Dew PointF,MeanDew PointF,Min DewpointF,Max Humidity, Mean Humidity, Min Humidity, Max Sea Level PressureIn, Mean Sea Level PressureIn, Min Sea Level PressureIn, Max VisibilityMiles, Mean VisibilityMiles, Min VisibilityMiles, Max Wind SpeedMPH, Mean Wind SpeedMPH, Max Gust SpeedMPH,PrecipitationIn, CloudCover, Events, WindDirDegrees
2013-10-1,70,55,40,55,48,38,93,77,46,30.02,29.96,29.90,10,9,1,9,2,,0.00,1,,256
2013-10-2,72,60,49,56,48,40,92,67,35,29.97,29.87,29.83,10,10,5,18,5,29,0.00,2,,229
2013-10-3,67,56,45,46,42,38,85,62,34,30.12,30.06,29.97,10,10,10,10,3,,0.00,0,,273
2013-10-4,59,51,43,48,43,40,91,73,54,30.14,30.10,30.07,10,10,10,9,3,,0.00,6,,338
2013-10-5,60,54,47,46,40,32,87,64,35,30.20,30.14,30.11,10,10,10,8,3,,0.00,6,Rain,356
2013-10-6,55,47,39,47,41,36,90,76,53,30.20,30.15,30.05,10,10,5,14,6,22,0.00,6,Rain,163
2013-10-7,67,58,50,60,52,44,89,81,71,30.04,29.86,29.58,10,9,2,25,12,37,0.00,8,Rain,176
2013-10-8,55,44,35,44,35,32,90,63,43,30.40,30.20,29.88,10,10,10,14,7,23,0.00,4,,276
2013-10-9,64,48,31,41,33,25,95,66,22,30.48,30.41,30.35,10,10,10,9,4,,0.00,0,,206
2013-10-10,69,52,37,44,36,22,85,62,17,30.35,30.28,30.20,10,10,2,8,4,,0.00,0,,216
2013-10-11,70,52,35,45,40,32,89,67,24,30.22,30.19,30.15,10,9,1,8,1,,0.00,0,,330
2013-10-12,73,56,40,50,44,37,88,68,38,30.37,30.29,30.21,10,10,4,8,2,,0.00,1,,185
2013-10-13,67,58,50,47,45,44,78,65,45,30.41,30.37,30.32,10,10,10,13,8,17,0.00,2,,161
2013-10-14,54,51,48,51,47,43,89,85,78,30.34,30.30,30.25,10,7,0,9,5,,0.00,7,Fog-Rain,183
2013-10-15,65,57,50,52,50,47,90,80,57,30.30,30.23,30.13,10,5,0,9,2,,0.00,7,Fog,172
2013-10-16,65,60,54,50,47,44,81,66,46,30.13,29.99,29.81,10,10,10,20,9,26,0.00,3,Rain,162
2013-10-17,65,56,49,52,46,42,86,70,45,29.83,29.79,29.72,10,10,5,15,7,20,0.00,6,Rain,213
2013-10-18,59,54,49,49,43,33,89,69,46,29.85,29.72,29.61,10,9,2,15,4,23,0.00,6,Rain,248
2013-10-19,62,52,43,42,38,34,77,58,35,29.91,29.82,29.67,10,10,10,10,7,20,0.00,4,Rain,186
2013-10-20,55,49,38,45,33,22,86,56,29,29.97,29.77,29.61,10,10,5,22,8,30,0.00,4,Rain,235
2013-10-21,61,47,34,38,35,30,89,60,42,30.05,29.97,29.87,10,10,10,9,2,,0.00,4,,187
2013-10-22,55,47,38,46,37,27,83,66,48,29.86,29.75,29.68,10,10,5,13,5,20,0.00,6,Rain,194
2013-10-23,49,40,32,32,28,23,83,64,39,29.75,29.68,29.61,10,10,10,9,3,,0.00,4,,226
2013-10-24,43,38,32,32,28,21,82,69,51,29.83,29.70,29.63,10,10,10,14,5,20,0.00,7,Rain-Snow,239
2013-10-25,42,38,33,32,27,22,79,64,51,30.09,29.99,29.83,10,10,10,18,4,25,0.00,7,,261
2013-10-26,40,35,30,35,30,24,87,78,70,30.08,29.92,29.77,10,9,2,10,5,18,0.00,6,Rain-Snow,183
2013-10-27,45,40,35,36,31,26,83,71,57,29.98,29.83,29.72,10,10,4,13,4,22,0.00,7,Rain,220
2013-10-28,44,36,30,36,27,18,81,67,44,30.36,30.11,29.95,10,10,4,15,5,29,0.00,5,Rain,244
2013-10-29,38,30,22,24,21,18,87,69,49,30.45,30.38,30.33,10,10,10,7,1,,0.00,1,,249
2013-10-30,41,32,23,30,26,19,84,74,63,30.32,30.22,30.17,10,10,10,7,2,,0.00,7,,210
2013-10-31,55,42,31,50,38,28,88,82,67,30.20,29.96,29.63,10,9,4,12,4,20,0.00,7,Rain,191